Time;durP1;ratioP1;P1;durP2;ratioP2;P2;SDS_P1;SDS_P2;PMS_P1;PMS_P2;Temp;Humidity;BMP_temperature;BMP_pressure;BME280_temperature;BME280_humidity;BME280_pressure;Samples;Min_cycle;Max_cycle;Signal;HPM_P1;HPM_P2
2023/04/18 00:00:21;;;;;;;11.17;9.10;;;10.20;99.90;;;;;;5011530;28;20229;-77
2023/04/18 00:02:49;;;;;;;10.10;9.10;;;10.20;99.90;;;;;;5010085;28;20450;-77
2023/04/18 00:05:16;;;;;;;12.33;9.80;;;10.10;99.90;;;;;;5010716;28;20981;-77
2023/04/18 00:07:42;;;;;;;12.03;9.20;;;10.10;99.90;;;;;;5011596;28;20433;-77
2023/04/18 00:10:08;;;;;;;10.60;9.50;;;10.10;99.90;;;;;;5011444;28;20434;-77
2023/04/18 00:12:35;;;;;;;10.67;9.57;;;10.10;99.90;;;;;;5011812;28;20415;-77
2023/04/18 00:15:02;;;;;;;10.13;9.07;;;10.10;99.90;;;;;;5010421;28;20211;-77
2023/04/18 00:17:29;;;;;;;10.40;9.23;;;10.00;99.90;;;;;;5011582;28;20505;-77
2023/04/18 00:19:57;;;;;;;10.40;9.30;;;10.00;99.90;;;;;;5026484;28;20529;-77
2023/04/18 00:22:24;;;;;;;12.37;9.77;;;10.00;99.90;;;;;;5011858;28;20465;-77
2023/04/18 00:24:50;;;;;;;9.70;8.70;;;10.00;99.90;;;;;;5011328;28;20422;-77
2023/04/18 00:27:20;;;;;;;10.27;8.80;;;10.00;99.90;;;;;;5011521;28;20421;-77
2023/04/18 00:29:47;;;;;;;9.00;8.10;;;10.00;99.90;;;;;;5011059;28;20414;-77
2023/04/18 00:32:13;;;;;;;9.93;8.80;;;10.00;99.90;;;;;;5012860;28;20478;-77
2023/04/18 00:34:39;;;;;;;12.00;8.97;;;9.90;99.90;;;;;;5011016;28;20421;-77
2023/04/18 00:37:06;;;;;;;13.23;10.03;;;10.00;99.90;;;;;;5010106;28;20496;-76
2023/04/18 00:39:33;;;;;;;11.47;9.40;;;10.00;99.90;;;;;;5011538;28;20547;-77
2023/04/18 00:42:00;;;;;;;11.10;9.73;;;9.90;99.90;;;;;;5011474;28;20541;-77
2023/04/18 00:44:26;;;;;;;12.67;9.40;;;9.90;99.90;;;;;;5011713;28;20410;-77
2023/04/18 00:46:51;;;;;;;10.40;9.40;;;9.80;99.90;;;;;;5011602;28;20421;-77
2023/04/18 00:49:17;;;;;;;10.73;9.63;;;9.90;99.90;;;;;;5011294;28;20245;-77
2023/04/18 00:51:43;;;;;;;11.00;9.83;;;9.90;99.90;;;;;;5010285;28;20218;-77
2023/04/18 00:54:11;;;;;;;9.60;8.60;;;9.80;99.90;;;;;;5011252;28;20238;-77
2023/04/18 00:56:38;;;;;;;14.43;9.50;;;9.80;99.90;;;;;;4992503;28;20680;-77
2023/04/18 00:59:05;;;;;;;12.67;9.67;;;9.70;99.90;;;;;;4991421;28;20485;-77
2023/04/18 01:01:32;;;;;;;9.20;8.20;;;9.70;99.90;;;;;;4991359;28;20463;-77
2023/04/18 01:03:58;;;;;;;9.93;8.93;;;9.70;99.90;;;;;;4991308;28;20442;-77
2023/04/18 01:06:25;;;;;;;11.00;8.80;;;9.60;99.90;;;;;;4991584;28;20422;-77
2023/04/18 01:08:52;;;;;;;8.80;8.00;;;9.60;99.90;;;;;;4991445;28;20411;-77
2023/04/18 01:11:19;;;;;;;9.47;8.20;;;9.50;99.90;;;;;;4991279;28;20956;-77
2023/04/18 01:14:05;;;;;;;9.20;7.73;;;9.60;99.90;;;;;;4991055;28;20454;-77
2023/04/18 01:16:32;;;;;;;9.27;8.33;;;9.60;99.90;;;;;;4991346;28;20447;-77
2023/04/18 01:19:01;;;;;;;8.80;7.70;;;9.60;99.90;;;;;;4990885;28;20423;-77
2023/04/18 01:21:30;;;;;;;10.50;7.17;;;9.50;99.90;;;;;;4990647;28;20513;-77
2023/04/18 01:24:00;;;;;;;8.10;7.30;;;9.50;99.90;;;;;;4990739;28;20434;-77
2023/04/18 01:26:27;;;;;;;8.47;7.63;;;9.50;99.90;;;;;;4990740;28;20466;-77
2023/04/18 01:28:52;;;;;;;8.80;7.20;;;9.40;99.90;;;;;;5006066;28;20426;-77
2023/04/18 01:31:18;;;;;;;7.97;6.77;;;9.40;99.90;;;;;;4990554;28;20431;-77
2023/04/18 01:33:44;;;;;;;8.90;7.97;;;9.30;99.90;;;;;;4990579;28;20211;-77
2023/04/18 01:36:09;;;;;;;8.33;7.43;;;9.30;99.90;;;;;;4990735;28;20191;-77
2023/04/18 01:38:35;;;;;;;8.73;7.83;;;9.30;99.90;;;;;;5005577;28;20221;-77
2023/04/18 01:41:01;;;;;;;9.70;6.90;;;9.30;99.90;;;;;;5007930;28;20711;-77
2023/04/18 01:43:26;;;;;;;9.93;7.23;;;9.50;99.90;;;;;;5009745;28;20258;-77
2023/04/18 01:45:52;;;;;;;7.57;6.57;;;9.30;99.90;;;;;;5010462;28;20410;-77
2023/04/18 01:48:18;;;;;;;8.73;7.03;;;9.20;99.90;;;;;;5010045;28;20237;-77
2023/04/18 01:50:43;;;;;;;7.53;6.60;;;9.20;99.90;;;;;;5008337;28;20199;-77
2023/04/18 01:53:09;;;;;;;10.10;7.67;;;9.10;99.90;;;;;;5009448;28;20179;-77
2023/04/18 01:55:35;;;;;;;7.73;6.97;;;9.20;99.90;;;;;;4999255;28;20179;-77
2023/04/18 01:58:00;;;;;;;9.17;7.70;;;9.10;99.90;;;;;;4990316;28;20207;-77
2023/04/18 02:00:26;;;;;;;7.23;6.60;;;9.10;99.90;;;;;;4989838;28;20250;-77
2023/04/18 02:02:51;;;;;;;10.40;6.80;;;9.20;99.90;;;;;;4990284;28;20546;-77
2023/04/18 02:05:17;;;;;;;7.10;6.40;;;9.10;99.90;;;;;;5005057;28;20607;-77
2023/04/18 02:07:43;;;;;;;8.87;6.90;;;9.40;99.90;;;;;;4989923;28;20195;-77
2023/04/18 02:10:09;;;;;;;6.80;6.13;;;9.10;99.90;;;;;;5005091;28;20290;-77
2023/04/18 02:12:35;;;;;;;7.60;6.60;;;9.10;99.90;;;;;;4990182;28;20276;-77
2023/04/18 02:15:01;;;;;;;8.40;6.03;;;9.10;99.90;;;;;;4990031;28;20919;-77
2023/04/18 02:17:27;;;;;;;8.07;6.83;;;9.00;99.90;;;;;;4990115;28;20542;-77
2023/04/18 02:19:53;;;;;;;7.87;6.77;;;8.90;99.90;;;;;;4989768;28;20434;-77
2023/04/18 02:22:19;;;;;;;7.70;6.20;;;8.80;99.90;;;;;;4989783;28;20458;-77
2023/04/18 02:24:44;;;;;;;6.83;6.23;;;8.80;99.90;;;;;;5004645;28;20652;-77
2023/04/18 02:27:10;;;;;;;7.00;6.30;;;8.80;99.90;;;;;;4990146;28;20172;-77
2023/04/18 02:29:36;;;;;;;6.93;6.20;;;8.80;99.90;;;;;;4989823;28;20596;-77
2023/04/18 02:32:02;;;;;;;8.70;7.13;;;8.80;99.90;;;;;;4989767;28;20521;-77
2023/04/18 02:34:27;;;;;;;6.10;5.50;;;8.90;99.90;;;;;;4989586;28;20641;-77
2023/04/18 02:36:53;;;;;;;9.10;6.90;;;8.90;99.90;;;;;;4990228;28;20422;-77
2023/04/18 02:39:20;;;;;;;7.03;5.43;;;8.90;99.90;;;;;;5009636;28;20682;-77
2023/04/18 02:41:45;;;;;;;6.63;5.73;;;8.90;99.90;;;;;;5024199;28;20215;-77
2023/04/18 02:44:11;;;;;;;6.57;5.97;;;8.90;99.90;;;;;;5009888;28;20414;-77
2023/04/18 02:46:37;;;;;;;6.00;5.40;;;8.80;99.90;;;;;;5009825;28;20647;-77
2023/04/18 02:49:02;;;;;;;6.40;5.80;;;8.90;99.90;;;;;;5027036;28;20179;-77
2023/04/18 02:51:28;;;;;;;6.40;5.80;;;9.10;99.90;;;;;;5011811;28;20754;-77
2023/04/18 02:53:55;;;;;;;5.47;4.97;;;8.80;99.90;;;;;;5027628;28;20648;-77
2023/04/18 02:56:21;;;;;;;9.47;6.90;;;8.80;99.90;;;;;;4995589;28;20275;-77
2023/04/18 02:58:47;;;;;;;6.53;5.37;;;8.70;99.90;;;;;;4993064;28;20800;-77
2023/04/18 03:01:14;;;;;;;5.83;5.23;;;9.10;99.90;;;;;;4992454;28;20467;-77
2023/04/18 03:03:40;;;;;;;7.50;5.50;;;8.90;99.90;;;;;;5007833;28;20423;-77
2023/04/18 03:06:05;;;;;;;7.30;5.90;;;8.70;99.90;;;;;;5007857;28;20943;-77
2023/04/18 03:08:31;;;;;;;6.67;5.97;;;8.80;99.90;;;;;;4992733;28;20676;-77
2023/04/18 03:10:57;;;;;;;6.53;5.80;;;8.80;99.90;;;;;;4992416;28;20385;-77
2023/04/18 03:13:23;;;;;;;6.13;5.53;;;8.70;99.90;;;;;;5007726;28;20498;-77
2023/04/18 03:15:49;;;;;;;8.50;5.63;;;8.80;99.90;;;;;;4992806;28;20171;-77
2023/04/18 03:18:15;;;;;;;7.20;6.10;;;9.00;99.90;;;;;;4992532;28;20414;-77
2023/04/18 03:20:40;;;;;;;7.60;5.87;;;8.80;99.90;;;;;;5007335;28;20446;-77
2023/04/18 03:23:06;;;;;;;6.17;5.57;;;8.70;99.90;;;;;;4991591;28;20187;-77
2023/04/18 03:25:33;;;;;;;7.50;6.33;;;8.70;99.90;;;;;;4991523;28;20633;-77
2023/04/18 03:27:58;;;;;;;7.43;5.93;;;8.80;99.90;;;;;;4992421;28;20515;-77
2023/04/18 03:30:24;;;;;;;8.30;5.70;;;8.60;99.90;;;;;;4992518;28;20453;-77
2023/04/18 03:32:51;;;;;;;7.93;6.63;;;8.60;99.90;;;;;;5007500;28;20676;-77
2023/04/18 03:35:17;;;;;;;7.00;6.03;;;8.90;99.90;;;;;;4992161;28;20419;-77
2023/04/18 03:37:43;;;;;;;6.60;5.90;;;8.70;99.90;;;;;;5000229;28;21324;-77
2023/04/18 03:40:09;;;;;;;7.80;6.90;;;8.70;99.90;;;;;;5011662;28;20428;-77
2023/04/18 03:42:35;;;;;;;7.60;6.53;;;8.50;99.90;;;;;;5011922;28;20699;-77
2023/04/18 03:45:01;;;;;;;7.10;6.40;;;8.60;99.90;;;;;;5011714;28;20422;-77
2023/04/18 03:47:29;;;;;;;7.17;6.47;;;8.80;99.90;;;;;;5010317;28;20194;-77
2023/04/18 03:49:54;;;;;;;7.00;6.30;;;8.60;99.90;;;;;;4994170;28;20229;-77
2023/04/18 03:52:20;;;;;;;7.37;6.67;;;8.60;99.90;;;;;;5011639;28;20943;-77
2023/04/18 03:54:46;;;;;;;7.27;6.57;;;8.60;99.90;;;;;;5008909;28;20306;-77
2023/04/18 03:57:11;;;;;;;7.73;6.93;;;8.60;99.90;;;;;;4991797;28;20266;-77
2023/04/18 03:59:37;;;;;;;8.70;7.17;;;8.70;99.90;;;;;;4991950;28;20519;-77
2023/04/18 04:02:03;;;;;;;9.40;7.10;;;8.80;99.90;;;;;;4992033;28;20223;-77
2023/04/18 04:04:28;;;;;;;10.73;7.20;;;8.70;99.90;;;;;;4991162;28;20258;-77
2023/04/18 04:06:54;;;;;;;6.57;5.90;;;8.60;99.90;;;;;;5006701;28;20195;-77
2023/04/18 04:09:20;;;;;;;8.07;6.90;;;8.50;99.90;;;;;;4991961;28;20172;-77
2023/04/18 04:11:46;;;;;;;7.50;6.67;;;8.70;99.90;;;;;;4991776;28;20438;-77
2023/04/18 04:14:11;;;;;;;8.67;7.77;;;8.50;99.90;;;;;;4991870;28;20658;-76
2023/04/18 04:16:37;;;;;;;8.70;7.80;;;8.50;99.90;;;;;;4991691;28;20215;-77
2023/04/18 04:19:03;;;;;;;8.90;8.00;;;8.60;99.90;;;;;;4991621;28;20191;-77
2023/04/18 04:21:30;;;;;;;9.07;8.17;;;8.40;99.90;;;;;;4991495;28;20466;-77
2023/04/18 04:23:56;;;;;;;8.90;8.00;;;8.40;99.90;;;;;;4991500;28;20183;-77
2023/04/18 04:26:22;;;;;;;8.80;7.90;;;8.40;99.90;;;;;;4991884;28;20415;-77
2023/04/18 04:28:48;;;;;;;8.80;7.83;;;8.60;99.90;;;;;;4991255;28;20411;-77
2023/04/18 04:31:15;;;;;;;9.60;8.40;;;8.40;99.90;;;;;;4991437;28;20643;-77
2023/04/18 04:33:42;;;;;;;10.07;8.30;;;8.50;99.90;;;;;;4991508;28;20434;-77
2023/04/18 04:36:08;;;;;;;9.90;8.50;;;8.40;99.90;;;;;;5005726;28;20932;-77
2023/04/18 04:38:37;;;;;;;10.67;9.50;;;8.50;99.90;;;;;;5021253;28;20557;-77
2023/04/18 04:41:05;;;;;;;8.60;7.70;;;8.70;99.90;;;;;;5010856;28;20473;-77
2023/04/18 04:43:31;;;;;;;9.27;8.37;;;8.70;99.90;;;;;;5010540;28;20418;-77
2023/04/18 04:45:57;;;;;;;9.73;8.57;;;8.60;99.90;;;;;;4993400;28;20418;-77
2023/04/18 04:48:23;;;;;;;9.80;8.80;;;8.60;99.90;;;;;;5009589;28;20557;-77
2023/04/18 04:50:54;;;;;;;9.40;8.40;;;8.80;99.90;;;;;;5010418;28;20195;-77
2023/04/18 04:53:20;;;;;;;10.47;9.17;;;8.60;99.90;;;;;;5010768;28;20410;-77
2023/04/18 04:55:46;;;;;;;10.17;9.17;;;8.60;99.90;;;;;;4999891;28;20439;-77
2023/04/18 04:58:12;;;;;;;10.30;9.30;;;8.80;99.90;;;;;;4991103;28;20718;-77
2023/04/18 05:00:37;;;;;;;9.47;8.60;;;8.60;99.90;;;;;;4990937;28;20250;-77
2023/04/18 05:03:03;;;;;;;9.53;8.60;;;8.80;99.90;;;;;;4990590;28;20386;-77
2023/04/18 05:05:29;;;;;;;10.80;9.37;;;8.90;99.90;;;;;;5005981;28;20530;-77
2023/04/18 05:07:55;;;;;;;10.83;8.70;;;8.80;99.90;;;;;;4990545;28;20226;-77
2023/04/18 05:10:21;;;;;;;10.43;9.33;;;8.60;99.90;;;;;;4990640;28;20462;-77
2023/04/18 05:12:46;;;;;;;10.37;9.30;;;8.90;99.90;;;;;;4989610;28;20188;-77
2023/04/18 05:15:15;;;;;;;10.63;9.53;;;8.70;99.90;;;;;;5005552;28;20504;-77
2023/04/18 05:17:40;;;;;;;10.60;9.50;;;8.70;99.90;;;;;;4990286;28;20205;-77
2023/04/18 05:20:07;;;;;;;11.07;9.10;;;8.90;99.90;;;;;;4990421;28;20431;-77
2023/04/18 05:22:33;;;;;;;10.30;9.27;;;8.90;99.90;;;;;;4990552;28;20224;-77
2023/04/18 05:24:58;;;;;;;10.10;9.10;;;8.80;99.90;;;;;;4989079;28;20936;-77
2023/04/18 05:27:25;;;;;;;10.30;9.20;;;8.90;99.90;;;;;;4990305;28;20192;-77
2023/04/18 05:29:51;;;;;;;10.60;9.47;;;8.80;99.90;;;;;;4990377;28;20207;-77
2023/04/18 05:32:17;;;;;;;11.30;10.20;;;8.80;99.90;;;;;;4991149;28;20450;-77
2023/04/18 05:34:43;;;;;;;11.73;8.97;;;8.80;99.90;;;;;;4990443;28;20447;-77
2023/04/18 05:37:09;;;;;;;11.20;9.77;;;8.90;99.90;;;;;;4992843;28;20947;-77
2023/04/18 05:39:34;;;;;;;12.30;10.47;;;9.00;99.90;;;;;;5009868;28;20199;-77
2023/04/18 05:42:01;;;;;;;11.77;10.53;;;9.00;99.90;;;;;;5011304;28;21000;-77
2023/04/18 05:44:28;;;;;;;13.00;10.13;;;9.00;99.90;;;;;;5020308;28;20306;-77
2023/04/18 05:46:53;;;;;;;12.43;11.13;;;9.30;99.90;;;;;;5005458;28;20425;-77
2023/04/18 05:49:20;;;;;;;12.10;10.57;;;9.20;99.90;;;;;;5011136;28;20466;-77
2023/04/18 05:51:48;;;;;;;11.23;10.13;;;9.30;99.90;;;;;;5009444;28;20957;-77
2023/04/18 05:54:20;;;;;;;14.17;11.00;;;9.20;99.90;;;;;;5010250;28;20410;-77
2023/04/18 05:56:46;;;;;;;11.20;10.10;;;9.10;99.90;;;;;;4996269;28;20433;-77
2023/04/18 05:59:12;;;;;;;12.30;10.63;;;9.20;99.90;;;;;;5008239;28;20426;-77
2023/04/18 06:01:38;;;;;;;11.77;10.33;;;9.30;99.90;;;;;;5009964;28;20568;-77
2023/04/18 06:04:04;;;;;;;11.90;10.70;;;8.90;99.90;;;;;;5010139;28;20903;-77
2023/04/18 06:06:30;;;;;;;12.33;10.67;;;8.90;99.90;;;;;;5008673;28;20270;-77
2023/04/18 06:08:56;;;;;;;11.30;9.77;;;8.90;99.90;;;;;;5008504;28;20476;-77
2023/04/18 06:11:21;;;;;;;10.80;9.53;;;8.90;99.90;;;;;;5009784;28;20832;-77
2023/04/18 06:13:47;;;;;;;11.90;10.70;;;8.90;99.90;;;;;;5009742;28;20178;-77
2023/04/18 06:16:13;;;;;;;11.77;10.57;;;8.90;99.90;;;;;;5009001;28;20214;-77
2023/04/18 06:18:38;;;;;;;10.93;9.63;;;8.90;99.90;;;;;;5009671;28;20801;-77
2023/04/18 06:21:04;;;;;;;11.43;10.13;;;8.90;99.90;;;;;;5009539;28;20280;-77
2023/04/18 06:23:30;;;;;;;12.97;10.57;;;8.90;99.90;;;;;;5007991;28;20190;-77
2023/04/18 06:25:56;;;;;;;12.10;10.00;;;9.00;99.90;;;;;;5009910;28;20986;-77
2023/04/18 06:28:22;;;;;;;10.90;9.80;;;9.00;99.90;;;;;;5013188;28;20558;-77
2023/04/18 06:30:48;;;;;;;11.47;10.27;;;9.20;99.90;;;;;;5031400;28;20445;-77
2023/04/18 06:33:13;;;;;;;11.80;10.10;;;9.00;99.90;;;;;;5002104;28;20183;-77
2023/04/18 06:35:40;;;;;;;13.40;11.27;;;9.00;99.90;;;;;;4996829;28;20180;-77
2023/04/18 06:38:05;;;;;;;11.00;9.77;;;8.90;99.90;;;;;;5007480;28;20202;-77
2023/04/18 06:40:31;;;;;;;10.17;9.20;;;9.10;99.90;;;;;;5016199;28;20438;-77
2023/04/18 06:42:57;;;;;;;11.07;9.90;;;9.10;99.90;;;;;;5016008;28;20289;-77
2023/04/18 06:45:23;;;;;;;11.87;10.60;;;9.20;99.90;;;;;;5016120;28;20191;-77
2023/04/18 06:47:50;;;;;;;12.83;10.70;;;9.20;99.90;;;;;;5015683;28;20652;-77
2023/04/18 06:50:16;;;;;;;11.50;9.40;;;9.10;99.90;;;;;;5015555;28;20195;-77
2023/04/18 06:52:44;;;;;;;11.87;10.53;;;9.20;99.90;;;;;;5015566;28;20409;-77
2023/04/18 06:55:12;;;;;;;11.97;10.70;;;9.20;99.90;;;;;;5011863;28;20956;-77
2023/04/18 06:57:41;;;;;;;11.90;10.70;;;9.20;99.90;;;;;;5015860;28;20425;-77
2023/04/18 07:00:07;;;;;;;14.40;11.00;;;9.10;99.90;;;;;;5015952;28;20446;-77
2023/04/18 07:02:36;;;;;;;13.63;10.47;;;9.10;99.90;;;;;;5016036;28;20532;-77
2023/04/18 07:05:01;;;;;;;13.07;11.70;;;9.10;99.90;;;;;;5014324;28;20493;-77
2023/04/18 07:07:27;;;;;;;12.57;10.80;;;9.20;99.90;;;;;;5015895;28;20508;-77
2023/04/18 07:09:53;;;;;;;15.83;12.10;;;9.20;99.90;;;;;;5013965;28;20349;-80
2023/04/18 07:12:20;;;;;;;13.10;11.80;;;9.00;99.90;;;;;;5015039;28;20493;-77
2023/04/18 07:14:45;;;;;;;15.10;12.10;;;9.20;99.90;;;;;;5014485;28;20421;-77
2023/04/18 07:17:11;;;;;;;13.57;11.63;;;9.00;99.90;;;;;;5015742;28;20421;-77
2023/04/18 07:19:37;;;;;;;12.47;10.93;;;9.10;99.90;;;;;;5015845;28;20186;-77
2023/04/18 07:22:02;;;;;;;14.00;12.50;;;9.20;99.90;;;;;;5014493;28;20457;-77
2023/04/18 07:24:28;;;;;;;12.93;11.53;;;9.20;99.90;;;;;;5015264;28;20182;-77
2023/04/18 07:26:54;;;;;;;14.07;11.47;;;9.20;99.90;;;;;;5015686;28;20221;-77
2023/04/18 07:29:20;;;;;;;13.70;11.80;;;9.20;99.90;;;;;;5014333;28;20473;-77
2023/04/18 07:31:46;;;;;;;13.40;12.00;;;9.20;99.90;;;;;;5015977;28;20199;-77
2023/04/18 07:34:15;;;;;;;14.30;12.07;;;9.10;99.90;;;;;;5015842;28;20739;-77
2023/04/18 07:36:41;;;;;;;14.70;12.50;;;9.10;99.90;;;;;;5016126;28;20479;-77
2023/04/18 07:39:06;;;;;;;15.43;12.73;;;9.20;99.90;;;;;;5012689;28;20456;-77
2023/04/18 07:41:33;;;;;;;15.13;12.60;;;9.20;99.90;;;;;;5013818;28;20472;-77
2023/04/18 07:44:00;;;;;;;14.33;12.17;;;9.20;99.90;;;;;;5013337;28;20203;-77
2023/04/18 07:46:26;;;;;;;15.87;12.90;;;9.20;99.90;;;;;;5012161;28;20406;-77
2023/04/18 07:48:51;;;;;;;14.43;12.30;;;9.10;99.90;;;;;;5026955;28;20479;-77
2023/04/18 07:51:17;;;;;;;16.40;12.57;;;9.20;99.90;;;;;;5011269;28;20434;-77
2023/04/18 07:53:43;;;;;;;15.80;13.20;;;9.30;99.90;;;;;;5011689;28;20187;-77
2023/04/18 07:56:11;;;;;;;15.00;13.00;;;9.50;99.90;;;;;;4998047;28;20180;-77
2023/04/18 07:58:37;;;;;;;15.10;12.50;;;9.50;99.90;;;;;;5007111;28;20179;-77
2023/04/18 08:01:02;;;;;;;13.00;11.60;;;9.40;99.90;;;;;;4990935;28;20972;-77
2023/04/18 08:03:28;;;;;;;17.53;13.63;;;9.50;99.90;;;;;;4991854;28;20676;-77
2023/04/18 08:05:54;;;;;;;16.17;12.37;;;9.40;99.90;;;;;;5007604;28;20258;-77
2023/04/18 08:08:20;;;;;;;15.40;12.37;;;9.40;99.90;;;;;;4992013;28;20230;-77
2023/04/18 08:10:46;;;;;;;18.27;13.30;;;9.60;99.90;;;;;;4991566;28;20431;-77
2023/04/18 08:13:12;;;;;;;14.67;12.17;;;9.40;99.90;;;;;;4991408;28;20890;-77
2023/04/18 08:15:39;;;;;;;15.33;12.17;;;9.40;99.90;;;;;;5005630;28;20194;-77
2023/04/18 08:18:04;;;;;;;13.50;11.27;;;9.50;99.90;;;;;;5005622;28;20176;-77
2023/04/18 08:20:30;;;;;;;14.23;11.60;;;9.50;99.90;;;;;;5016800;28;20433;-77
2023/04/18 08:22:56;;;;;;;14.00;12.23;;;9.50;99.90;;;;;;5015856;28;20238;-77
2023/04/18 08:25:22;;;;;;;13.23;10.83;;;9.60;99.90;;;;;;5011464;28;20179;-76
2023/04/18 08:27:47;;;;;;;14.13;11.30;;;9.50;99.90;;;;;;5016282;28;20672;-77
2023/04/18 08:30:14;;;;;;;13.57;11.57;;;9.50;99.90;;;;;;5017675;28;20441;-77
2023/04/18 08:32:39;;;;;;;14.63;12.00;;;9.50;99.90;;;;;;5012447;28;20195;-77
2023/04/18 08:35:06;;;;;;;15.13;11.30;;;9.70;99.90;;;;;;5018352;28;20472;-77
2023/04/18 08:37:34;;;;;;;13.03;10.43;;;9.60;99.90;;;;;;5026356;28;20191;-77
2023/04/18 08:40:01;;;;;;;13.67;11.83;;;9.60;99.90;;;;;;5014998;28;20437;-77
2023/04/18 08:42:27;;;;;;;12.47;10.83;;;9.60;99.90;;;;;;5019768;28;20586;-78
2023/04/18 08:44:53;;;;;;;13.10;10.80;;;9.60;99.90;;;;;;5020199;28;20863;-78
2023/04/18 08:47:19;;;;;;;15.07;11.97;;;9.60;99.90;;;;;;5017684;28;20446;-78
2023/04/18 08:49:45;;;;;;;12.30;10.47;;;9.60;99.90;;;;;;5012477;28;20187;-77
2023/04/18 08:52:18;;;;;;;15.60;10.83;;;9.60;99.90;;;;;;5012262;28;20430;-77
2023/04/18 08:54:45;;;;;;;13.57;10.37;;;9.50;99.90;;;;;;5017466;28;20417;-78
2023/04/18 08:57:15;;;;;;;14.57;11.30;;;9.50;99.90;;;;;;5015537;28;20417;-78
2023/04/18 08:59:44;;;;;;;12.43;10.50;;;9.50;99.90;;;;;;5019536;28;20425;-78
2023/04/18 09:02:14;;;;;;;14.50;10.50;;;9.40;99.90;;;;;;5017611;28;20474;-77
2023/04/18 09:04:44;;;;;;;12.90;10.70;;;9.60;99.90;;;;;;5012347;28;20411;-77
2023/04/18 09:07:18;;;;;;;12.53;11.17;;;9.40;99.90;;;;;;5017900;28;20478;-78
2023/04/18 09:09:45;;;;;;;13.50;11.60;;;9.40;99.90;;;;;;5013426;28;20502;-78
2023/04/18 09:12:13;;;;;;;13.03;10.73;;;9.40;99.90;;;;;;5014968;28;20861;-78
2023/04/18 09:14:44;;;;;;;14.70;11.23;;;9.40;99.90;;;;;;5019274;28;20904;-78
2023/04/18 09:17:30;;;;;;;14.00;11.77;;;9.40;99.90;;;;;;5011064;28;20421;-78
2023/04/18 09:19:57;;;;;;;14.50;10.57;;;9.60;99.90;;;;;;5010325;28;20461;-77
2023/04/18 09:22:23;;;;;;;14.30;11.77;;;9.70;99.90;;;;;;5010617;28;20892;-78
2023/04/18 09:24:56;;;;;;;14.63;10.70;;;9.50;99.90;;;;;;5010570;28;20414;-78
2023/04/18 09:27:23;;;;;;;12.70;10.50;;;9.50;99.90;;;;;;5009701;28;20414;-78
2023/04/18 09:29:51;;;;;;;17.27;12.50;;;9.60;99.90;;;;;;5010906;28;20422;-78
2023/04/18 09:32:23;;;;;;;16.40;12.63;;;9.60;99.90;;;;;;5010642;28;20793;-78
2023/04/18 09:34:50;;;;;;;15.90;12.57;;;9.70;99.90;;;;;;5010740;28;20410;-78
2023/04/18 09:37:15;;;;;;;13.03;11.57;;;9.90;99.90;;;;;;5009156;28;20429;-78
2023/04/18 09:39:43;;;;;;;17.37;12.73;;;9.70;99.90;;;;;;5008974;28;20441;-78
2023/04/18 09:42:09;;;;;;;16.37;13.00;;;9.70;99.90;;;;;;5010456;28;20203;-77
2023/04/18 09:44:36;;;;;;;17.63;13.00;;;9.70;99.90;;;;;;5010452;28;20418;-76
2023/04/18 09:47:02;;;;;;;16.57;11.80;;;9.60;99.90;;;;;;5010282;28;20410;-78
2023/04/18 09:49:28;;;;;;;17.17;13.07;;;9.70;99.90;;;;;;5010575;28;20410;-77
2023/04/18 09:51:54;;;;;;;18.03;12.63;;;9.70;99.90;;;;;;5010733;28;20643;-77
2023/04/18 09:54:23;;;;;;;13.87;11.50;;;9.70;99.90;;;;;;5010327;28;20452;-78
2023/04/18 09:56:52;;;;;;;15.60;11.63;;;9.80;99.90;;;;;;5010432;28;20793;-78
2023/04/18 09:59:53;;;;;;;16.50;11.67;;;9.80;99.90;;;;;;5009779;28;20433;-77
2023/04/18 10:02:21;;;;;;;14.90;11.93;;;9.90;99.90;;;;;;4987930;28;20473;-77
2023/04/18 10:04:52;;;;;;;13.53;11.47;;;9.90;99.90;;;;;;5010611;28;20425;-77
2023/04/18 10:07:19;;;;;;;16.70;12.53;;;10.00;99.90;;;;;;5010685;28;20422;-78
2023/04/18 10:09:45;;;;;;;15.27;12.37;;;10.00;99.90;;;;;;5025806;28;20418;-78
2023/04/18 10:12:12;;;;;;;16.50;13.50;;;9.90;99.90;;;;;;5010114;28;20406;-78
2023/04/18 10:14:42;;;;;;;14.50;11.43;;;10.00;99.90;;;;;;5025315;28;20426;-78
2023/04/18 10:17:08;;;;;;;14.97;12.20;;;10.10;99.90;;;;;;5010233;28;20418;-77
2023/04/18 10:19:34;;;;;;;15.77;12.70;;;10.10;99.90;;;;;;5010308;28;20414;-78
2023/04/18 10:22:01;;;;;;;15.77;13.10;;;10.10;99.90;;;;;;5009691;28;20939;-78
2023/04/18 10:24:48;;;;;;;15.20;13.20;;;10.10;99.90;;;;;;5025265;28;20410;-78
2023/04/18 10:27:15;;;;;;;18.43;13.53;;;10.20;99.90;;;;;;5008881;28;20406;-78
2023/04/18 10:29:59;;;;;;;18.50;14.80;;;10.30;99.90;;;;;;5025483;28;20437;-78
2023/04/18 10:32:27;;;;;;;19.33;12.70;;;10.30;99.90;;;;;;5010949;28;20412;-77
2023/04/18 10:34:53;;;;;;;21.43;14.70;;;10.30;99.90;;;;;;5011829;28;20418;-76
2023/04/18 10:37:18;;;;;;;18.07;13.83;;;10.40;99.90;;;;;;5005811;28;20419;-78
2023/04/18 10:39:58;;;;;;;15.90;13.20;;;10.40;99.90;;;;;;4991328;28;20480;-78
2023/04/18 10:42:46;;;;;;;16.97;13.57;;;10.50;99.90;;;;;;4990891;28;20297;-78
2023/04/18 10:45:18;;;;;;;17.77;13.70;;;10.60;99.90;;;;;;5006113;28;20489;-78
2023/04/18 10:47:44;;;;;;;17.93;13.80;;;10.70;99.90;;;;;;5005162;28;20844;-78
2023/04/18 10:50:10;;;;;;;16.00;12.40;;;10.80;99.90;;;;;;4991246;28;20525;-78
2023/04/18 10:52:36;;;;;;;14.77;12.23;;;11.00;99.90;;;;;;5005824;28;20211;-78
2023/04/18 10:55:09;;;;;;;17.40;13.43;;;11.00;99.90;;;;;;5010459;28;20841;-78
2023/04/18 10:57:47;;;;;;;16.03;13.77;;;11.00;99.90;;;;;;5010004;28;20450;-78
2023/04/18 11:00:16;;;;;;;17.17;13.20;;;11.10;99.90;;;;;;5009190;28;20430;-78
2023/04/18 11:03:08;;;;;;;16.20;13.03;;;11.20;99.90;;;;;;5009900;28;20814;-78
2023/04/18 11:05:33;;;;;;;16.73;13.17;;;11.20;99.90;;;;;;5008083;28;20433;-78
2023/04/18 11:07:59;;;;;;;16.97;13.33;;;11.20;99.90;;;;;;5009932;28;20410;-78
2023/04/18 11:10:26;;;;;;;16.40;12.90;;;11.20;99.90;;;;;;5025223;28;20353;-78
2023/04/18 11:12:53;;;;;;;16.93;14.37;;;11.20;99.90;;;;;;5025168;28;20179;-78
2023/04/18 11:15:23;;;;;;;18.00;14.30;;;11.20;99.90;;;;;;5013532;28;20472;-78
2023/04/18 11:18:00;;;;;;;18.87;14.60;;;11.30;99.90;;;;;;5012187;28;20428;-78
2023/04/18 11:20:26;;;;;;;19.90;15.00;;;11.30;99.90;;;;;;5011856;28;20816;-78
2023/04/18 11:22:53;;;;;;;16.17;14.47;;;11.40;99.90;;;;;;5013638;28;20461;-78
2023/04/18 11:25:23;;;;;;;19.17;13.90;;;11.50;99.90;;;;;;5013414;28;20449;-78
2023/04/18 11:27:54;;;;;;;17.67;13.93;;;11.60;99.90;;;;;;5028389;28;20414;-78
2023/04/18 11:30:20;;;;;;;17.57;14.27;;;11.70;99.90;;;;;;5013269;28;20501;-78
2023/04/18 11:32:46;;;;;;;15.27;13.23;;;11.80;99.90;;;;;;5028504;28;20418;-78
2023/04/18 11:35:13;;;;;;;17.30;14.63;;;11.80;99.90;;;;;;5027743;28;20781;-78
2023/04/18 11:37:40;;;;;;;16.83;13.80;;;11.90;99.90;;;;;;5005240;28;20517;-78
2023/04/18 11:40:08;;;;;;;18.80;15.57;;;12.00;99.90;;;;;;4993038;28;20896;-78
2023/04/18 11:42:36;;;;;;;19.00;15.70;;;12.30;99.90;;;;;;4992820;28;20459;-78
2023/04/18 11:45:02;;;;;;;19.70;15.67;;;12.50;99.90;;;;;;4991953;28;20419;-78
2023/04/18 11:47:33;;;;;;;18.00;14.73;;;12.60;99.90;;;;;;5008293;28;20407;-76
2023/04/18 11:50:07;;;;;;;19.33;16.03;;;12.60;99.90;;;;;;5008424;28;20406;-78
2023/04/18 11:52:34;;;;;;;19.67;16.87;;;12.60;99.90;;;;;;5006575;28;20865;-78
2023/04/18 11:55:17;;;;;;;21.27;15.97;;;12.60;99.90;;;;;;4997307;28;20426;-77
2023/04/18 11:57:54;;;;;;;19.70;15.93;;;12.60;99.90;;;;;;5027924;28;20434;-78
2023/04/18 12:00:37;;;;;;;17.63;15.00;;;12.60;99.90;;;;;;5010776;28;20449;-77
2023/04/18 12:03:04;;;;;;;17.00;14.83;;;12.50;99.90;;;;;;5028085;28;20487;-78
2023/04/18 12:05:32;;;;;;;16.60;14.43;;;12.70;99.90;;;;;;5013081;28;20414;-78
2023/04/18 12:08:19;;;;;;;15.90;14.20;;;12.70;99.90;;;;;;5012140;28;20457;-77
2023/04/18 12:10:52;;;;;;;14.80;13.30;;;12.90;99.90;;;;;;5012614;28;20433;-77
2023/04/18 12:13:23;;;;;;;15.50;12.70;;;13.00;99.90;;;;;;5012220;28;20472;-78
2023/04/18 12:15:49;;;;;;;17.60;14.00;;;13.00;99.90;;;;;;5027952;28;20414;-77
2023/04/18 12:18:18;;;;;;;18.40;14.53;;;13.10;99.90;;;;;;5027904;28;20417;-77
2023/04/18 12:20:48;;;;;;;17.70;13.73;;;13.10;99.90;;;;;;5012531;28;20559;-77
2023/04/18 12:23:34;;;;;;;14.83;12.80;;;13.20;99.90;;;;;;4994733;28;20457;-77
2023/04/18 12:26:11;;;;;;;17.43;14.30;;;13.30;99.90;;;;;;5012124;28;20938;-77
2023/04/18 12:28:36;;;;;;;13.70;12.30;;;13.40;99.90;;;;;;5011941;28;20406;-77
2023/04/18 12:31:06;;;;;;;15.27;12.90;;;13.50;99.90;;;;;;5011774;28;20501;-77
2023/04/18 12:33:32;;;;;;;15.37;13.13;;;13.60;99.90;;;;;;5011607;28;20175;-77
2023/04/18 12:35:58;;;;;;;14.70;13.20;;;13.70;99.90;;;;;;5026390;28;20493;-77
2023/04/18 12:38:23;;;;;;;16.73;14.00;;;13.60;99.90;;;;;;4998250;28;21012;-77
2023/04/18 12:40:50;;;;;;;19.77;13.87;;;13.60;99.90;;;;;;4993174;28;20258;-77
2023/04/18 12:43:17;;;;;;;14.43;12.93;;;13.60;99.90;;;;;;5009270;28;20263;-78